Saint-Tropez, France
Current Conditions -  °F | °C
As of 10:00 PM on Thursday 27 Nov 2014 (Local Time) from LFMD Reporting Station
Overcast Overcast  
Wind Chill: 55°   Ceiling: 5200
Heat Index: 55°   Visibility: 6mi
Dew Point: 52°   Wind: 2mph
Humidity: 88%   Direction: NA
Pressure: 29.8"   Gusts: NA
Location:  43.27°N, 6.64°E
Report Text: LFMD 272100Z AUTO VRB02KT 9999 OVC052 13/11 Q1009
Loading
Personal Weather Stations






























Interactive Weather Map New forecast layout! Learn more

10-Day Weather Forecast

Advertisements
Track Severe Weather on mobile